sensor_id;sensor_type;location;lat;lon;timestamp;pressure;altitude;pressure_sealevel;temperature;humidity
74680;BME280;63211;48.548;2.704;2023-04-02T00:01:35;100502.78;;;18.99;58.07
74680;BME280;63211;48.548;2.704;2023-04-02T00:04:11;100493.53;;;19.00;57.76
74680;BME280;63211;48.548;2.704;2023-04-02T00:06:38;100504.22;;;19.01;57.87
74680;BME280;63211;48.548;2.704;2023-04-02T00:09:30;100499.00;;;19.00;58.12
74680;BME280;63211;48.548;2.704;2023-04-02T00:12:10;100503.00;;;18.97;57.99
74680;BME280;63211;48.548;2.704;2023-04-02T00:14:44;100504.91;;;18.97;58.16
74680;BME280;63211;48.548;2.704;2023-04-02T00:17:12;100501.72;;;19.00;58.06
74680;BME280;63211;48.548;2.704;2023-04-02T00:19:43;100510.03;;;19.05;57.42
74680;BME280;63211;48.548;2.704;2023-04-02T00:22:15;100511.84;;;19.11;57.09
74680;BME280;63211;48.548;2.704;2023-04-02T00:24:44;100510.28;;;19.15;56.86
74680;BME280;63211;48.548;2.704;2023-04-02T00:27:13;100510.03;;;19.16;56.95
74680;BME280;63211;48.548;2.704;2023-04-02T00:29:44;100516.34;;;19.17;56.88
74680;BME280;63211;48.548;2.704;2023-04-02T00:32:16;100518.84;;;19.18;56.84
74680;BME280;63211;48.548;2.704;2023-04-02T00:34:45;100519.44;;;19.20;56.82
74680;BME280;63211;48.548;2.704;2023-04-02T00:37:15;100522.41;;;19.19;56.79
74680;BME280;63211;48.548;2.704;2023-04-02T00:39:50;100521.78;;;19.17;56.63
74680;BME280;63211;48.548;2.704;2023-04-02T00:42:18;100520.38;;;19.14;56.88
74680;BME280;63211;48.548;2.704;2023-04-02T00:44:47;100473.59;;;18.87;57.07
74680;BME280;63211;48.548;2.704;2023-04-02T00:47:18;100525.59;;;19.16;57.07
74680;BME280;63211;48.548;2.704;2023-04-02T00:49:47;100527.47;;;19.15;57.07
74680;BME280;63211;48.548;2.704;2023-04-02T00:52:18;100530.22;;;19.15;57.01
74680;BME280;63211;48.548;2.704;2023-04-02T00:54:51;100534.00;;;19.14;57.02
74680;BME280;63211;48.548;2.704;2023-04-02T00:57:21;100490.34;;;18.91;57.17
74680;BME280;63211;48.548;2.704;2023-04-02T00:59:54;100532.00;;;19.10;57.16
74680;BME280;63211;48.548;2.704;2023-04-02T01:02:25;100520.50;;;19.08;57.37
74680;BME280;63211;48.548;2.704;2023-04-02T01:04:52;100531.78;;;19.11;57.44
74680;BME280;63211;48.548;2.704;2023-04-02T01:07:34;100532.25;;;19.08;57.60
74680;BME280;63211;48.548;2.704;2023-04-02T01:10:20;100528.69;;;19.08;57.62
74680;BME280;63211;48.548;2.704;2023-04-02T01:12:52;100527.25;;;19.05;58.00
74680;BME280;63211;48.548;2.704;2023-04-02T01:15:26;100540.06;;;19.05;57.99
74680;BME280;63211;48.548;2.704;2023-04-02T01:18:10;100544.44;;;19.06;57.91
74680;BME280;63211;48.548;2.704;2023-04-02T01:20:56;100539.22;;;19.04;57.66
74680;BME280;63211;48.548;2.704;2023-04-02T01:23:28;100551.81;;;19.05;58.01
74680;BME280;63211;48.548;2.704;2023-04-02T01:26:02;100548.47;;;19.03;58.21
74680;BME280;63211;48.548;2.704;2023-04-02T01:28:43;100555.38;;;19.06;57.92
74680;BME280;63211;48.548;2.704;2023-04-02T01:31:14;100554.53;;;19.05;57.81
74680;BME280;63211;48.548;2.704;2023-04-02T01:33:42;100557.50;;;19.04;57.83
74680;BME280;63211;48.548;2.704;2023-04-02T01:36:13;100563.56;;;19.06;57.56
74680;BME280;63211;48.548;2.704;2023-04-02T01:38:46;100561.66;;;19.06;57.74
74680;BME280;63211;48.548;2.704;2023-04-02T01:41:19;100560.00;;;19.05;57.68
74680;BME280;63211;48.548;2.704;2023-04-02T01:43:53;100560.81;;;19.06;57.75
74680;BME280;63211;48.548;2.704;2023-04-02T01:46:25;100570.06;;;19.05;57.74
74680;BME280;63211;48.548;2.704;2023-04-02T01:48:53;100567.94;;;19.07;57.76
74680;BME280;63211;48.548;2.704;2023-04-02T01:51:26;100563.31;;;19.07;57.75
74680;BME280;63211;48.548;2.704;2023-04-02T01:53:53;100564.38;;;19.06;57.64
74680;BME280;63211;48.548;2.704;2023-04-02T01:56:21;100562.13;;;19.03;57.67
74680;BME280;63211;48.548;2.704;2023-04-02T01:58:48;100569.47;;;19.03;57.76
74680;BME280;63211;48.548;2.704;2023-04-02T02:01:18;100561.97;;;18.98;57.45
74680;BME280;63211;48.548;2.704;2023-04-02T02:03:46;100572.66;;;19.00;57.81
74680;BME280;63211;48.548;2.704;2023-04-02T02:06:14;100564.69;;;18.98;57.51
74680;BME280;63211;48.548;2.704;2023-04-02T02:08:45;100571.38;;;19.02;57.23
74680;BME280;63211;48.548;2.704;2023-04-02T02:11:14;100570.06;;;19.05;56.98
74680;BME280;63211;48.548;2.704;2023-04-02T02:13:45;100571.03;;;19.10;56.62
74680;BME280;63211;48.548;2.704;2023-04-02T02:16:15;100579.00;;;19.12;56.50
74680;BME280;63211;48.548;2.704;2023-04-02T02:18:47;100586.09;;;19.13;56.63
74680;BME280;63211;48.548;2.704;2023-04-02T02:21:22;100580.41;;;19.14;56.77
74680;BME280;63211;48.548;2.704;2023-04-02T02:23:54;100560.22;;;19.04;56.66
74680;BME280;63211;48.548;2.704;2023-04-02T02:26:23;100590.03;;;19.17;56.87
74680;BME280;63211;48.548;2.704;2023-04-02T02:28:55;100590.84;;;19.17;56.70
74680;BME280;63211;48.548;2.704;2023-04-02T02:31:28;100603.66;;;19.17;56.72
74680;BME280;63211;48.548;2.704;2023-04-02T02:34:02;100596.31;;;19.17;56.74
74680;BME280;63211;48.548;2.704;2023-04-02T02:36:33;100598.81;;;19.19;56.59
74680;BME280;63211;48.548;2.704;2023-04-02T02:39:11;100548.53;;;18.85;56.47
74680;BME280;63211;48.548;2.704;2023-04-02T02:41:44;100606.41;;;19.17;56.92
74680;BME280;63211;48.548;2.704;2023-04-02T02:44:15;100604.72;;;19.16;57.07
74680;BME280;63211;48.548;2.704;2023-04-02T02:46:45;100600.56;;;19.13;57.17
74680;BME280;63211;48.548;2.704;2023-04-02T02:49:18;100603.28;;;19.13;56.73
74680;BME280;63211;48.548;2.704;2023-04-02T02:51:49;100616.09;;;19.13;57.38
74680;BME280;63211;48.548;2.704;2023-04-02T02:54:18;100630.25;;;19.10;57.41
74680;BME280;63211;48.548;2.704;2023-04-02T02:56:48;100629.63;;;19.08;57.74
74680;BME280;63211;48.548;2.704;2023-04-02T02:59:17;100628.22;;;19.05;57.42
74680;BME280;63211;48.548;2.704;2023-04-02T03:01:45;100627.38;;;19.05;57.81
74680;BME280;63211;48.548;2.704;2023-04-02T03:04:13;100627.00;;;19.01;57.64
74680;BME280;63211;48.548;2.704;2023-04-02T03:06:47;100630.34;;;19.03;57.76
74680;BME280;63211;48.548;2.704;2023-04-02T03:09:21;100638.28;;;19.05;57.65
74680;BME280;63211;48.548;2.704;2023-04-02T03:11:56;100629.72;;;19.01;57.64
74680;BME280;63211;48.548;2.704;2023-04-02T03:14:30;100626.38;;;18.99;57.79
74680;BME280;63211;48.548;2.704;2023-04-02T03:17:02;100627.69;;;18.97;58.00
74680;BME280;63211;48.548;2.704;2023-04-02T03:19:34;100632.31;;;18.96;57.58
74680;BME280;63211;48.548;2.704;2023-04-02T03:22:10;100639.44;;;18.97;57.81
74680;BME280;63211;48.548;2.704;2023-04-02T03:24:46;100639.66;;;18.96;57.66
74680;BME280;63211;48.548;2.704;2023-04-02T03:27:17;100639.66;;;18.96;57.61
74680;BME280;63211;48.548;2.704;2023-04-02T03:29:51;100647.84;;;18.96;57.67
74680;BME280;63211;48.548;2.704;2023-04-02T03:32:22;100654.13;;;18.96;57.75
74680;BME280;63211;48.548;2.704;2023-04-02T03:34:55;100586.03;;;18.60;57.24
74680;BME280;63211;48.548;2.704;2023-04-02T03:37:27;100647.25;;;18.94;57.53
74680;BME280;63211;48.548;2.704;2023-04-02T03:40:00;100654.38;;;18.95;57.48
74680;BME280;63211;48.548;2.704;2023-04-02T03:42:36;100652.69;;;18.94;57.50
74680;BME280;63211;48.548;2.704;2023-04-02T03:45:10;100658.16;;;18.94;57.45
74680;BME280;63211;48.548;2.704;2023-04-02T03:47:44;100660.03;;;18.93;57.67
74680;BME280;63211;48.548;2.704;2023-04-02T03:50:16;100664.66;;;18.93;57.21
74680;BME280;63211;48.548;2.704;2023-04-02T03:52:47;100664.59;;;18.99;56.92
74680;BME280;63211;48.548;2.704;2023-04-02T03:55:17;100667.69;;;19.03;56.80
74680;BME280;63211;48.548;2.704;2023-04-02T03:57:50;100671.41;;;19.08;56.41
74680;BME280;63211;48.548;2.704;2023-04-02T04:00:23;100670.13;;;19.11;56.71
74680;BME280;63211;48.548;2.704;2023-04-02T04:02:56;100682.94;;;19.10;56.63
74680;BME280;63211;48.548;2.704;2023-04-02T04:05:27;100674.75;;;19.10;56.12
74680;BME280;63211;48.548;2.704;2023-04-02T04:07:58;100686.00;;;19.14;56.35
74680;BME280;63211;48.548;2.704;2023-04-02T04:10:28;100687.66;;;19.15;56.25
74680;BME280;63211;48.548;2.704;2023-04-02T04:13:01;100682.31;;;19.08;56.07
74680;BME280;63211;48.548;2.704;2023-04-02T04:15:32;100685.44;;;19.12;56.20
74680;BME280;63211;48.548;2.704;2023-04-02T04:18:04;100688.16;;;19.12;56.39
74680;BME280;63211;48.548;2.704;2023-04-02T04:20:39;100693.34;;;19.13;56.29
74680;BME280;63211;48.548;2.704;2023-04-02T04:23:16;100703.22;;;19.14;56.39
74680;BME280;63211;48.548;2.704;2023-04-02T04:25:44;100679.66;;;19.02;56.34
74680;BME280;63211;48.548;2.704;2023-04-02T04:28:19;100703.94;;;19.10;56.29
74680;BME280;63211;48.548;2.704;2023-04-02T04:30:51;100707.00;;;19.13;56.51
74680;BME280;63211;48.548;2.704;2023-04-02T04:33:26;100701.81;;;19.12;56.80
74680;BME280;63211;48.548;2.704;2023-04-02T04:36:05;100711.63;;;19.13;56.61
74680;BME280;63211;48.548;2.704;2023-04-02T04:38:47;100713.53;;;19.12;56.46
74680;BME280;63211;48.548;2.704;2023-04-02T04:41:22;100721.38;;;19.09;56.77
74680;BME280;63211;48.548;2.704;2023-04-02T04:43:52;100713.63;;;19.06;57.02
74680;BME280;63211;48.548;2.704;2023-04-02T04:46:24;100722.88;;;19.05;56.87
74680;BME280;63211;48.548;2.704;2023-04-02T04:48:56;100723.72;;;19.05;56.94
74680;BME280;63211;48.548;2.704;2023-04-02T04:51:28;100728.56;;;19.03;56.93
74680;BME280;63211;48.548;2.704;2023-04-02T04:53:59;100722.72;;;19.00;56.88
74680;BME280;63211;48.548;2.704;2023-04-02T04:56:27;100718.19;;;18.94;56.90
74680;BME280;63211;48.548;2.704;2023-04-02T04:58:59;100731.97;;;18.99;57.02
74680;BME280;63211;48.548;2.704;2023-04-02T05:01:32;100741.22;;;18.98;56.76
74680;BME280;63211;48.548;2.704;2023-04-02T05:04:04;100745.84;;;18.97;57.13
74680;BME280;63211;48.548;2.704;2023-04-02T05:06:38;100719.41;;;18.79;56.90
74680;BME280;63211;48.548;2.704;2023-04-02T05:09:13;100757.81;;;18.96;57.17
74680;BME280;63211;48.548;2.704;2023-04-02T05:11:44;100757.19;;;18.94;56.87
74680;BME280;63211;48.548;2.704;2023-04-02T05:14:20;100762.06;;;18.92;57.18
74680;BME280;63211;48.548;2.704;2023-04-02T05:16:52;100761.47;;;18.90;57.10
74680;BME280;63211;48.548;2.704;2023-04-02T05:19:24;100758.19;;;18.81;56.90
74680;BME280;63211;48.548;2.704;2023-04-02T05:21:58;100771.31;;;18.91;57.04
74680;BME280;63211;48.548;2.704;2023-04-02T05:24:36;100775.94;;;18.91;56.95
74680;BME280;63211;48.548;2.704;2023-04-02T05:27:12;100777.84;;;18.90;56.86
74680;BME280;63211;48.548;2.704;2023-04-02T05:29:46;100785.31;;;18.95;56.54
74680;BME280;63211;48.548;2.704;2023-04-02T05:32:16;100787.75;;;19.03;56.28
74680;BME280;63211;48.548;2.704;2023-04-02T05:34:49;100784.13;;;19.09;55.98
74680;BME280;63211;48.548;2.704;2023-04-02T05:37:20;100794.81;;;19.10;56.03
74680;BME280;63211;48.548;2.704;2023-04-02T05:39:53;100792.31;;;19.09;55.92
74680;BME280;63211;48.548;2.704;2023-04-02T05:42:22;100801.09;;;19.11;55.84
74680;BME280;63211;48.548;2.704;2023-04-02T05:44:58;100804.69;;;19.11;55.78
74680;BME280;63211;48.548;2.704;2023-04-02T05:47:28;100813.22;;;19.15;55.57
74680;BME280;63211;48.548;2.704;2023-04-02T05:50:14;100812.16;;;19.16;55.51
74680;BME280;63211;48.548;2.704;2023-04-02T05:52:46;100811.31;;;19.15;55.70
74680;BME280;63211;48.548;2.704;2023-04-02T05:55:29;100816.16;;;19.13;56.02
74680;BME280;63211;48.548;2.704;2023-04-02T05:58:03;100818.91;;;19.13;55.88
74680;BME280;63211;48.548;2.704;2023-04-02T06:00:46;100820.78;;;19.13;56.09
74680;BME280;63211;48.548;2.704;2023-04-02T06:03:22;100828.13;;;19.12;55.97
74680;BME280;63211;48.548;2.704;2023-04-02T06:05:52;100827.09;;;19.13;56.07
74680;BME280;63211;48.548;2.704;2023-04-02T06:08:24;100824.84;;;19.10;56.06
74680;BME280;63211;48.548;2.704;2023-04-02T06:10:57;100836.59;;;19.11;56.08
74680;BME280;63211;48.548;2.704;2023-04-02T06:13:26;100839.31;;;19.11;56.08
74680;BME280;63211;48.548;2.704;2023-04-02T06:15:53;100834.09;;;19.09;56.14
74680;BME280;63211;48.548;2.704;2023-04-02T06:18:22;100843.94;;;19.10;56.14
74680;BME280;63211;48.548;2.704;2023-04-02T06:20:50;100849.63;;;19.09;56.49
74680;BME280;63211;48.548;2.704;2023-04-02T06:23:19;100852.56;;;19.07;56.40
74680;BME280;63211;48.548;2.704;2023-04-02T06:25:50;100843.00;;;18.98;56.16
74680;BME280;63211;48.548;2.704;2023-04-02T06:28:24;100859.94;;;19.07;56.46
74680;BME280;63211;48.548;2.704;2023-04-02T06:30:53;100865.59;;;19.05;56.42
74680;BME280;63211;48.548;2.704;2023-04-02T06:33:23;100866.88;;;19.03;56.48
74680;BME280;63211;48.548;2.704;2023-04-02T06:35:50;100868.41;;;18.99;56.57
74680;BME280;63211;48.548;2.704;2023-04-02T06:38:19;100862.94;;;18.99;56.49
74680;BME280;63211;48.548;2.704;2023-04-02T06:40:51;100869.44;;;18.98;56.41
74680;BME280;63211;48.548;2.704;2023-04-02T06:43:26;100871.34;;;18.97;56.45
74680;BME280;63211;48.548;2.704;2023-04-02T06:45:58;100869.28;;;18.93;56.26
74680;BME280;63211;48.548;2.704;2023-04-02T06:48:27;100874.31;;;18.96;56.43
74680;BME280;63211;48.548;2.704;2023-04-02T06:50:58;100886.03;;;18.96;56.43
74680;BME280;63211;48.548;2.704;2023-04-02T06:53:29;100883.53;;;18.95;56.09
74680;BME280;63211;48.548;2.704;2023-04-02T06:56:02;100888.16;;;18.94;56.38
74680;BME280;63211;48.548;2.704;2023-04-02T06:58:31;100884.00;;;18.92;56.21
74680;BME280;63211;48.548;2.704;2023-04-02T07:00:58;100891.38;;;18.91;56.59
74680;BME280;63211;48.548;2.704;2023-04-02T07:03:26;100893.41;;;18.96;56.26
74680;BME280;63211;48.548;2.704;2023-04-02T07:05:54;100900.09;;;19.00;55.90
74680;BME280;63211;48.548;2.704;2023-04-02T07:08:22;100900.03;;;19.06;55.81
74680;BME280;63211;48.548;2.704;2023-04-02T07:10:49;100913.44;;;19.08;55.52
74680;BME280;63211;48.548;2.704;2023-04-02T07:13:17;100913.22;;;19.09;55.58
74680;BME280;63211;48.548;2.704;2023-04-02T07:15:47;100911.34;;;19.10;55.45
74680;BME280;63211;48.548;2.704;2023-04-02T07:18:27;100921.19;;;19.11;55.49
74680;BME280;63211;48.548;2.704;2023-04-02T07:20:54;100918.22;;;19.12;55.45
74680;BME280;63211;48.548;2.704;2023-04-02T07:23:21;100927.47;;;19.11;55.30
74680;BME280;63211;48.548;2.704;2023-04-02T07:25:48;100923.53;;;19.07;55.43
74680;BME280;63211;48.548;2.704;2023-04-02T07:28:15;100937.31;;;19.12;55.41
74680;BME280;63211;48.548;2.704;2023-04-02T07:30:43;100943.03;;;19.11;55.45
74680;BME280;63211;48.548;2.704;2023-04-02T07:33:13;100950.38;;;19.10;55.54
74680;BME280;63211;48.548;2.704;2023-04-02T07:35:41;100950.38;;;19.10;55.58
74680;BME280;63211;48.548;2.704;2023-04-02T07:38:08;100945.97;;;19.09;55.29
74680;BME280;63211;48.548;2.704;2023-04-02T07:40:34;100953.09;;;19.10;55.58
74680;BME280;63211;48.548;2.704;2023-04-02T07:43:02;100967.81;;;19.09;55.74
74680;BME280;63211;48.548;2.704;2023-04-02T07:45:28;100960.47;;;19.10;55.58
74680;BME280;63211;48.548;2.704;2023-04-02T07:47:55;100969.69;;;19.09;55.56
74680;BME280;63211;48.548;2.704;2023-04-02T07:50:23;100959.84;;;19.08;55.76
74680;BME280;63211;48.548;2.704;2023-04-02T07:52:50;100973.94;;;19.05;55.69
74680;BME280;63211;48.548;2.704;2023-04-02T07:55:17;100969.31;;;19.05;55.85
74680;BME280;63211;48.548;2.704;2023-04-02T07:57:47;100973.09;;;19.04;55.79
74680;BME280;63211;48.548;2.704;2023-04-02T08:00:15;100976.47;;;19.00;56.08
74680;BME280;63211;48.548;2.704;2023-04-02T08:02:41;100968.53;;;18.98;55.93
74680;BME280;63211;48.548;2.704;2023-04-02T08:05:08;100974.59;;;19.00;55.91
74680;BME280;63211;48.548;2.704;2023-04-02T08:07:37;100987.63;;;18.98;55.55
74680;BME280;63211;48.548;2.704;2023-04-02T08:10:05;100983.84;;;18.99;55.55
74680;BME280;63211;48.548;2.704;2023-04-02T08:12:32;100989.72;;;18.96;55.78
74680;BME280;63211;48.548;2.704;2023-04-02T08:14:58;100993.94;;;18.92;56.15
74680;BME280;63211;48.548;2.704;2023-04-02T08:17:25;100992.13;;;18.86;56.15
74680;BME280;63211;48.548;2.704;2023-04-02T08:19:55;101001.78;;;18.88;55.97
74680;BME280;63211;48.548;2.704;2023-04-02T08:22:25;100997.81;;;18.84;55.96
74680;BME280;63211;48.548;2.704;2023-04-02T08:24:53;101001.59;;;18.83;56.08
74680;BME280;63211;48.548;2.704;2023-04-02T08:27:20;101005.84;;;19.04;55.01
74680;BME280;63211;48.548;2.704;2023-04-02T08:29:47;101016.09;;;19.09;55.14
74680;BME280;63211;48.548;2.704;2023-04-02T08:32:14;101012.66;;;19.13;55.04
74680;BME280;63211;48.548;2.704;2023-04-02T08:34:41;101009.94;;;19.13;55.52
74680;BME280;63211;48.548;2.704;2023-04-02T08:37:09;101012.66;;;19.13;55.99
74680;BME280;63211;48.548;2.704;2023-04-02T08:39:36;101025.66;;;19.18;55.56
74680;BME280;63211;48.548;2.704;2023-04-02T08:42:07;101030.94;;;19.13;54.81
74680;BME280;63211;48.548;2.704;2023-04-02T08:44:45;101029.53;;;19.10;55.10
74680;BME280;63211;48.548;2.704;2023-04-02T08:47:16;101036.91;;;19.03;54.94
74680;BME280;63211;48.548;2.704;2023-04-02T08:49:50;101019.19;;;18.87;54.78
74680;BME280;63211;48.548;2.704;2023-04-02T08:52:21;101041.19;;;18.93;54.77
74680;BME280;63211;48.548;2.704;2023-04-02T08:54:49;101044.97;;;18.92;54.79
74680;BME280;63211;48.548;2.704;2023-04-02T08:57:24;101044.38;;;18.90;55.11
74680;BME280;63211;48.548;2.704;2023-04-02T08:59:59;101055.44;;;18.95;54.83
74680;BME280;63211;48.548;2.704;2023-04-02T09:02:33;101060.06;;;18.94;54.93
74680;BME280;63211;48.548;2.704;2023-04-02T09:05:04;101070.97;;;18.94;54.66
74680;BME280;63211;48.548;2.704;2023-04-02T09:07:32;101071.25;;;18.86;54.70
74680;BME280;63211;48.548;2.704;2023-04-02T09:09:59;101073.06;;;18.92;54.90
74680;BME280;63211;48.548;2.704;2023-04-02T09:12:29;101087.34;;;18.94;54.32
74680;BME280;63211;48.548;2.704;2023-04-02T09:15:07;101077.66;;;18.98;54.50
74680;BME280;63211;48.548;2.704;2023-04-02T09:17:42;101084.41;;;18.96;54.49
74680;BME280;63211;48.548;2.704;2023-04-02T09:20:15;101094.47;;;18.95;54.66
74680;BME280;63211;48.548;2.704;2023-04-02T09:22:43;101090.28;;;18.93;54.42
74680;BME280;63211;48.548;2.704;2023-04-02T09:25:13;101099.94;;;18.95;54.57
74680;BME280;63211;48.548;2.704;2023-04-02T09:27:46;101106.44;;;18.94;54.36
74680;BME280;63211;48.548;2.704;2023-04-02T09:30:24;101101.81;;;18.95;54.13
74680;BME280;63211;48.548;2.704;2023-04-02T09:32:55;101099.94;;;18.95;54.30
74680;BME280;63211;48.548;2.704;2023-04-02T09:35:24;101106.66;;;18.93;54.18
74680;BME280;63211;48.548;2.704;2023-04-02T09:38:14;101108.53;;;18.92;53.81
74680;BME280;63211;48.548;2.704;2023-04-02T09:40:46;101117.56;;;18.93;54.26
74680;BME280;63211;48.548;2.704;2023-04-02T09:43:16;101112.94;;;18.93;54.50
74680;BME280;63211;48.548;2.704;2023-04-02T09:45:43;101110.91;;;18.88;54.04
74680;BME280;63211;48.548;2.704;2023-04-02T09:48:25;101116.38;;;18.88;54.03
74680;BME280;63211;48.548;2.704;2023-04-02T09:51:12;101096.53;;;18.68;54.65
74680;BME280;63211;48.548;2.704;2023-04-02T09:53:41;101133.78;;;18.87;54.50
74680;BME280;63211;48.548;2.704;2023-04-02T09:56:13;101124.75;;;18.87;54.34
74680;BME280;63211;48.548;2.704;2023-04-02T09:58:43;101136.09;;;18.91;54.17
74680;BME280;63211;48.548;2.704;2023-04-02T10:01:27;101136.50;;;18.87;54.39
74680;BME280;63211;48.548;2.704;2023-04-02T10:03:54;101133.78;;;18.87;54.37
74680;BME280;63211;48.548;2.704;2023-04-02T10:06:23;101137.78;;;18.85;53.73
74680;BME280;63211;48.548;2.704;2023-04-02T10:08:50;101132.94;;;18.87;54.35
74680;BME280;63211;48.548;2.704;2023-04-02T10:11:20;101138.19;;;18.88;54.58
74680;BME280;63211;48.548;2.704;2023-04-02T10:13:50;101145.75;;;18.86;54.21
74680;BME280;63211;48.548;2.704;2023-04-02T10:16:22;101141.78;;;18.82;53.71
74680;BME280;63211;48.548;2.704;2023-04-02T10:18:53;101141.38;;;18.79;53.78
74680;BME280;63211;48.548;2.704;2023-04-02T10:21:24;101159.19;;;18.81;53.80
74680;BME280;63211;48.548;2.704;2023-04-02T10:23:52;101158.97;;;18.83;53.83
74680;BME280;63211;48.548;2.704;2023-04-02T10:26:37;101160.88;;;18.82;53.81
74680;BME280;63211;48.548;2.704;2023-04-02T10:29:18;101173.28;;;18.78;54.09
74680;BME280;63211;48.548;2.704;2023-04-02T10:31:58;101186.28;;;18.76;53.66
74680;BME280;63211;48.548;2.704;2023-04-02T10:34:32;101189.22;;;18.75;53.69
74680;BME280;63211;48.548;2.704;2023-04-02T10:37:09;101192.78;;;18.75;53.55
74680;BME280;63211;48.548;2.704;2023-04-02T10:39:40;101187.94;;;18.84;53.89
74680;BME280;63211;48.548;2.704;2023-04-02T10:42:17;101194.66;;;18.88;53.64
74680;BME280;63211;48.548;2.704;2023-04-02T10:44:53;101193.53;;;18.96;53.17
74680;BME280;63211;48.548;2.704;2023-04-02T10:47:28;101200.66;;;18.97;52.73
74680;BME280;63211;48.548;2.704;2023-04-02T10:50:06;101199.84;;;18.96;52.92
74680;BME280;63211;48.548;2.704;2023-04-02T10:52:44;101188.50;;;18.93;52.42
74680;BME280;63211;48.548;2.704;2023-04-02T10:55:17;101192.50;;;18.97;52.89
74680;BME280;63211;48.548;2.704;2023-04-02T10:57:46;101202.97;;;19.00;52.92
74680;BME280;63211;48.548;2.704;2023-04-02T11:00:19;101207.59;;;18.99;52.83
74680;BME280;63211;48.548;2.704;2023-04-02T11:02:51;101208.44;;;19.00;53.02
74680;BME280;63211;48.548;2.704;2023-04-02T11:05:24;101203.41;;;18.97;52.63
74680;BME280;63211;48.548;2.704;2023-04-02T11:07:58;101209.47;;;18.99;52.83
74680;BME280;63211;48.548;2.704;2023-04-02T11:10:29;101209.69;;;18.97;52.73
74680;BME280;63211;48.548;2.704;2023-04-02T11:13:00;101219.78;;;18.97;52.89
74680;BME280;63211;48.548;2.704;2023-04-02T11:15:30;101213.69;;;18.95;53.23
74680;BME280;63211;48.548;2.704;2023-04-02T11:17:57;101221.03;;;18.94;53.14
74680;BME280;63211;48.548;2.704;2023-04-02T11:20:55;101180.88;;;18.70;53.24
74680;BME280;63211;48.548;2.704;2023-04-02T11:23:25;101223.38;;;18.91;52.81
74680;BME280;63211;48.548;2.704;2023-04-02T11:26:36;101225.50;;;18.88;52.99
74680;BME280;63211;48.548;2.704;2023-04-02T11:29:15;101232.00;;;18.87;52.96
74680;BME280;63211;48.548;2.704;2023-04-02T11:31:44;101242.06;;;18.87;53.30
74680;BME280;63211;48.548;2.704;2023-04-02T11:34:13;101245.03;;;18.85;53.02
74680;BME280;63211;48.548;2.704;2023-04-02T11:37:00;101228.47;;;18.74;52.92
74680;BME280;63211;48.548;2.704;2023-04-02T11:39:51;101241.66;;;18.83;53.36
74680;BME280;63211;48.548;2.704;2023-04-02T11:42:29;101238.31;;;18.81;53.46
74680;BME280;63211;48.548;2.704;2023-04-02T11:44:59;101207.94;;;18.58;53.35
74680;BME280;63211;48.548;2.704;2023-04-02T11:47:28;101249.66;;;18.78;53.54
74680;BME280;63211;48.548;2.704;2023-04-02T11:50:00;101245.25;;;18.77;53.59
74680;BME280;63211;48.548;2.704;2023-04-02T11:52:30;101254.47;;;18.76;53.76
74680;BME280;63211;48.548;2.704;2023-04-02T11:55:18;101253.44;;;18.77;53.41
74680;BME280;63211;48.548;2.704;2023-04-02T12:01:09;101265.81;;;18.73;53.27
74680;BME280;63211;48.548;2.704;2023-04-02T12:03:56;101270.84;;;18.76;53.25
74680;BME280;63211;48.548;2.704;2023-04-02T12:06:35;101266.22;;;18.83;52.90
74680;BME280;63211;48.548;2.704;2023-04-02T12:09:17;101283.41;;;18.91;52.72
74680;BME280;63211;48.548;2.704;2023-04-02T12:11:44;101276.66;;;18.93;52.44
74680;BME280;63211;48.548;2.704;2023-04-02T12:14:31;101277.50;;;18.94;52.45
74680;BME280;63211;48.548;2.704;2023-04-02T12:16:59;101274.78;;;18.94;52.45
74680;BME280;63211;48.548;2.704;2023-04-02T12:19:29;101262.63;;;18.90;52.34
74680;BME280;63211;48.548;2.704;2023-04-02T12:21:57;101288.88;;;18.91;52.38
74680;BME280;63211;48.548;2.704;2023-04-02T12:24:26;101294.50;;;18.96;52.49
74680;BME280;63211;48.548;2.704;2023-04-02T12:27:05;101261.81;;;18.76;52.41
74680;BME280;63211;48.548;2.704;2023-04-02T12:29:33;101291.97;;;18.94;52.65
74680;BME280;63211;48.548;2.704;2023-04-02T12:32:00;101296.38;;;18.95;52.77
74680;BME280;63211;48.548;2.704;2023-04-02T12:34:29;101293.88;;;18.94;52.74
74680;BME280;63211;48.548;2.704;2023-04-02T12:36:57;101301.22;;;18.93;52.82
74680;BME280;63211;48.548;2.704;2023-04-02T12:39:28;101306.88;;;18.92;52.82
74680;BME280;63211;48.548;2.704;2023-04-02T12:41:55;101301.88;;;18.88;52.80
74680;BME280;63211;48.548;2.704;2023-04-02T12:44:25;101282.81;;;18.75;53.15
74680;BME280;63211;48.548;2.704;2023-04-02T12:46:52;101272.34;;;18.66;52.84
74680;BME280;63211;48.548;2.704;2023-04-02T12:49:34;101304.00;;;18.86;52.78
74680;BME280;63211;48.548;2.704;2023-04-02T12:52:03;101300.44;;;18.86;52.56
74680;BME280;63211;48.548;2.704;2023-04-02T12:54:35;101296.22;;;18.83;52.83
74680;BME280;63211;48.548;2.704;2023-04-02T12:57:32;101311.56;;;18.84;52.84
74680;BME280;63211;48.548;2.704;2023-04-02T13:00:00;101316.16;;;18.84;53.15
74680;BME280;63211;48.548;2.704;2023-04-02T13:02:31;101313.44;;;18.84;53.17
74680;BME280;63211;48.548;2.704;2023-04-02T13:05:00;101315.13;;;18.85;52.89
74680;BME280;63211;48.548;2.704;2023-04-02T13:07:29;101326.44;;;18.82;52.71
74680;BME280;63211;48.548;2.704;2023-04-02T13:09:58;101329.59;;;18.79;52.99
74680;BME280;63211;48.548;2.704;2023-04-02T13:12:26;101323.50;;;18.77;53.06
74680;BME280;63211;48.548;2.704;2023-04-02T13:14:58;101322.69;;;18.76;52.83
74680;BME280;63211;48.548;2.704;2023-04-02T13:17:39;101323.94;;;18.74;53.10
74680;BME280;63211;48.548;2.704;2023-04-02T13:20:28;101323.94;;;18.74;53.13